Bookmark and Share
Track history (hours):
 

Jacques Cartier

Last reported at 2012-Sep-15 07:33 UTC. Time now 2014-Apr-17 09:36 UTC.
Position N 46°35' W 072°01'.
Warning: this ship's position is years out of date!

Length 45 m.

MMSI: 316005213.

NotesDate/timePositionNaut miles runAvg speedWind from/ knotsBaromVisibWave heightAir tempDewpointWater temp
2012-Sep-15 07:33N 46°35' W 072°01'1211.9
2012-Sep-15 06:34N 46°28' W 072°15'1110.9
2012-Sep-15 05:34N 46°23' W 072°28'4 3.9
2012-Sep-15 04:37N 46°20' W 072°32'0 0.0
2012-Sep-15 03:33N 46°20' W 072°32'0 0.0
2012-Sep-15 02:33N 46°20' W 072°32'0 0.0
2012-Sep-15 01:33N 46°20' W 072°32'0 0.0
2012-Sep-15 00:33N 46°20' W 072°32'0 0.0
2012-Sep-14 23:33N 46°20' W 072°32'0 0.0
2012-Sep-14 22:34N 46°20' W 072°32'0 0.0
2012-Sep-14 21:33N 46°20' W 072°32'0 0.0
2012-Sep-14 20:33N 46°20' W 072°32'0 0.0
2012-Sep-14 19:33N 46°20' W 072°32'0 0.0
2012-Sep-14 18:33N 46°20' W 072°32'0 0.0
2012-Sep-14 17:34N 46°20' W 072°32'9 9.4
2012-Sep-14 16:33N 46°15' W 072°44'15 0.5
2012-Sep-13 13:25N 46°06' W 072°60'7 7.4
2012-Sep-13 12:32N 46°11' W 072°55'8 7.7
2012-Sep-13 11:33N 46°15' W 072°45'7 7.6
2012-Sep-13 10:35N 46°18' W 072°35'3 3.3
2012-Sep-13 09:33N 46°20' W 072°32'0 0.0
2012-Sep-13 08:33N 46°20' W 072°32'0 0.0
2012-Sep-13 07:33N 46°20' W 072°32'0 0.0
2012-Sep-13 06:33N 46°20' W 072°32'0 0.0
2012-Sep-13 05:33N 46°20' W 072°32'0 0.0
2012-Sep-13 04:36N 46°20' W 072°32'0 0.0
2012-Sep-13 03:33N 46°20' W 072°32'0 0.0
2012-Sep-13 02:33N 46°20' W 072°32'0 0.0
2012-Sep-13 01:33N 46°20' W 072°32'3 2.7
2012-Sep-13 00:33N 46°18' W 072°34'3 2.7
2012-Sep-12 23:33N 46°20' W 072°32'0 0.0
2012-Sep-12 22:33N 46°20' W 072°32'0 0.0
2012-Sep-12 21:33N 46°20' W 072°32'0 0.0
2012-Sep-12 20:33N 46°20' W 072°32'0 0.0
2012-Sep-12 19:33N 46°20' W 072°32'0 0.0
2012-Sep-12 18:34N 46°20' W 072°32'5 4.8
2012-Sep-12 17:33N 46°17' W 072°37'5 4.8
2012-Sep-12 16:33N 46°20' W 072°32'0 0.0
2012-Sep-12 15:34N 46°20' W 072°32'0 0.0
2012-Sep-12 14:33N 46°20' W 072°32'0 0.0
2012-Sep-12 13:33N 46°20' W 072°32'0 0.0
2012-Sep-12 12:33N 46°20' W 072°32'0 0.0
2012-Sep-12 11:33N 46°20' W 072°32'0 0.0
2012-Sep-12 10:35N 46°20' W 072°32'0 0.0
2012-Sep-12 09:33N 46°20' W 072°32'0 0.0
2012-Sep-12 08:33N 46°20' W 072°32'0 0.0
2012-Sep-12 07:33N 46°20' W 072°32'0 0.0
2012-Sep-12 06:33N 46°20' W 072°32'0 0.0
2012-Sep-12 05:33N 46°20' W 072°32'0 0.0
2012-Sep-12 04:34N 46°20' W 072°32'0 0.0
2012-Sep-12 03:33N 46°20' W 072°32'0 0.0
2012-Sep-12 02:33N 46°20' W 072°32'0 0.0
2012-Sep-12 01:33N 46°20' W 072°32'0 0.0
2012-Sep-12 00:33N 46°20' W 072°32'0 0.0
2012-Sep-11 23:33N 46°20' W 072°32'0 0.0
2012-Sep-11 22:33N 46°20' W 072°32'0 0.0
2012-Sep-11 21:32N 46°20' W 072°32'0 0.0
2012-Sep-11 20:32N 46°20' W 072°32'0 0.0
2012-Sep-11 19:33N 46°20' W 072°32'0 0.0
2012-Sep-11 18:33N 46°20' W 072°32'0 0.0
2012-Sep-11 17:34N 46°20' W 072°32'0 0.0
2012-Sep-11 16:33N 46°20' W 072°32'0 0.0
2012-Sep-11 15:33N 46°20' W 072°32'0 0.0
2012-Sep-11 14:33N 46°20' W 072°32'0 0.0
2012-Sep-11 13:33N 46°20' W 072°32'0 0.0
2012-Sep-11 12:33N 46°20' W 072°32'0 0.0
2012-Sep-11 11:33N 46°20' W 072°32'0 0.0
2012-Sep-11 10:35N 46°20' W 072°32'0 0.0
2012-Sep-11 09:33N 46°20' W 072°32'0 0.0
2012-Sep-11 08:33N 46°20' W 072°32'0 0.0
2012-Sep-11 07:33N 46°20' W 072°32'0 0.0
2012-Sep-11 06:33N 46°20' W 072°32'0 0.0
2012-Sep-11 05:33N 46°20' W 072°32'0 0.0
2012-Sep-11 04:35N 46°20' W 072°32'0 0.0
2012-Sep-11 03:33N 46°20' W 072°32'0 0.0
2012-Sep-11 02:33N 46°20' W 072°32'0 0.0
2012-Sep-11 01:32N 46°20' W 072°32'0 0.0
2012-Sep-11 00:33N 46°20' W 072°32'0 0.0
2012-Sep-10 23:33N 46°20' W 072°32'0 0.0
2012-Sep-10 22:33N 46°20' W 072°32'0 0.0
2012-Sep-10 21:33N 46°20' W 072°32'0 0.0
2012-Sep-10 20:34N 46°20' W 072°32'0 0.0
2012-Sep-10 19:33N 46°20' W 072°32'0 0.0
2012-Sep-10 18:33N 46°20' W 072°32'0 0.0
2012-Sep-10 17:33N 46°20' W 072°32'0 0.0
2012-Sep-10 16:34N 46°20' W 072°32'0 0.0
2012-Sep-10 15:33N 46°20' W 072°32'0 0.0
2012-Sep-10 14:33N 46°20' W 072°32'0 0.0
2012-Sep-10 13:32N 46°20' W 072°32'0 0.0
2012-Sep-10 12:33N 46°20' W 072°32'0 0.0
2012-Sep-10 11:33N 46°20' W 072°32'0 0.0
2012-Sep-10 10:35N 46°20' W 072°32'0 0.0
2012-Sep-10 09:33N 46°20' W 072°32'0 0.0
2012-Sep-10 08:34N 46°20' W 072°32'0 0.0
2012-Sep-10 07:33N 46°20' W 072°32'0 0.0
2012-Sep-10 06:32N 46°20' W 072°32'0 0.0
2012-Sep-10 05:33N 46°20' W 072°32'0 0.0
2012-Sep-10 04:36N 46°20' W 072°32'0 0.0
2012-Sep-10 03:33N 46°20' W 072°32'0 0.0
2012-Sep-10 02:32N 46°20' W 072°32'0 0.0
2012-Sep-10 01:33N 46°20' W 072°32'7 7.1
2012-Sep-10 00:33N 46°16' W 072°40'1110.7
2012-Sep-09 23:33N 46°11' W 072°54'0 0.1
2012-Sep-09 21:33N 46°11' W 072°55'8 7.6
2012-Sep-09 20:33N 46°15' W 072°45'8 7.6
2012-Sep-09 19:33N 46°18' W 072°35'3 3.4
2012-Sep-09 18:33N 46°20' W 072°32'0 0.0
2012-Sep-09 17:32N 46°20' W 072°32'0 0.0
2012-Sep-09 16:33N 46°20' W 072°32'0 0.1
2012-Sep-09 15:33N 46°20' W 072°32'0 0.1
2012-Sep-09 14:33N 46°20' W 072°32'0 0.0
2012-Sep-09 13:33N 46°20' W 072°32'0 0.0
2012-Sep-09 12:32N 46°20' W 072°32'0 0.0
2012-Sep-09 11:34N 46°20' W 072°32'0 0.0
2012-Sep-09 10:35N 46°20' W 072°32'0 0.0
2012-Sep-09 09:33N 46°20' W 072°32'0 0.0
2012-Sep-09 08:33N 46°20' W 072°32'0 0.0
2012-Sep-09 07:33N 46°20' W 072°32'0 0.0
2012-Sep-09 06:34N 46°20' W 072°32'0 0.0
2012-Sep-09 05:32N 46°20' W 072°32'8 8.6
2012-Sep-09 04:36N 46°16' W 072°42'17 1.2
2012-Sep-08 14:24N 46°05' W 073°01'7 7.7
2012-Sep-08 13:31N 46°11' W 072°55'8 8.0
2012-Sep-08 12:33N 46°14' W 072°46'8 8.1
2012-Sep-08 11:33N 46°18' W 072°35'3 3.3
2012-Sep-08 10:35N 46°20' W 072°32'0 0.0
2012-Sep-08 09:34N 46°20' W 072°32'0 0.0
2012-Sep-08 08:32N 46°20' W 072°32'0 0.0
2012-Sep-08 07:33N 46°20' W 072°32'0 0.0
2012-Sep-08 06:34N 46°20' W 072°32'0 0.0
2012-Sep-08 05:32N 46°20' W 072°32'0 0.0
2012-Sep-08 04:36N 46°20' W 072°32'0 0.0
2012-Sep-08 03:33N 46°20' W 072°32'0 0.0
2012-Sep-08 02:32N 46°20' W 072°32'0 0.0
2012-Sep-08 01:33N 46°20' W 072°32'0 0.0
2012-Sep-08 00:33N 46°20' W 072°32'0 0.0
2012-Sep-07 23:33N 46°20' W 072°32'0 0.0
2012-Sep-07 22:33N 46°20' W 072°32'0 0.0
2012-Sep-07 21:33N 46°20' W 072°32'0 0.0
2012-Sep-07 20:32N 46°20' W 072°32'0 0.0
2012-Sep-07 19:33N 46°20' W 072°32'0 0.0
2012-Sep-07 18:33N 46°20' W 072°32'0 0.0
2012-Sep-07 17:33N 46°20' W 072°32'0 0.0
2012-Sep-07 16:33N 46°20' W 072°32'0 0.0
2012-Sep-07 15:34N 46°20' W 072°32'0 0.0
2012-Sep-07 14:32N 46°20' W 072°32'0 0.0
2012-Sep-07 13:33N 46°20' W 072°32'0 0.0
2012-Sep-07 12:33N 46°20' W 072°32'0 0.0
2012-Sep-07 11:33N 46°20' W 072°32'0 0.0
2012-Sep-07 10:35N 46°20' W 072°32'0 0.0
2012-Sep-07 09:33N 46°20' W 072°32'0 0.0
2012-Sep-07 08:33N 46°20' W 072°32'0 0.0
2012-Sep-07 07:33N 46°20' W 072°32'0 0.0
2012-Sep-07 06:33N 46°20' W 072°32'0 0.0
2012-Sep-07 05:33N 46°20' W 072°32'0 0.0
2012-Sep-06 23:33N 46°20' W 072°32'0 0.0
2012-Sep-06 22:28N 46°20' W 072°32'0 0.0
2012-Sep-06 21:33N 46°20' W 072°32'0 0.0
2012-Sep-06 20:33N 46°20' W 072°32'0 0.0
2012-Sep-06 19:33N 46°20' W 072°32'0 0.0
2012-Sep-06 18:33N 46°20' W 072°32'0 0.0
2012-Sep-06 17:33N 46°20' W 072°32'0 0.0
2012-Sep-06 16:33N 46°20' W 072°32'0 0.0
2012-Sep-06 15:33N 46°20' W 072°32'0 0.0
2012-Sep-06 13:33N 46°20' W 072°32'0 0.0
2012-Sep-06 12:33N 46°20' W 072°32'0 0.0
2012-Sep-06 11:33N 46°20' W 072°32'0 0.0
2012-Sep-06 10:31N 46°20' W 072°32'0 0.0
2012-Sep-06 09:28N 46°20' W 072°32'0 0.0
2012-Sep-06 08:34N 46°20' W 072°32'0 0.0
2012-Sep-06 07:33N 46°20' W 072°32'0 0.0
2012-Sep-06 06:33N 46°20' W 072°32'0 0.0
2012-Sep-06 05:33N 46°20' W 072°32'0 0.0
2012-Sep-06 04:37N 46°20' W 072°32'0 0.0
2012-Sep-06 03:33N 46°20' W 072°32'0 0.0
2012-Sep-06 02:33N 46°20' W 072°32'0 0.0
2012-Sep-06 01:32N 46°20' W 072°32'0 0.0
2012-Sep-06 00:33N 46°20' W 072°32'0 0.0
2012-Sep-05 23:33N 46°20' W 072°32'0 0.0
2012-Sep-05 22:33N 46°20' W 072°32'0 0.0
2012-Sep-05 21:33N 46°20' W 072°32'0 0.0
2012-Sep-05 20:33N 46°20' W 072°32'0 0.0
2012-Sep-05 19:33N 46°20' W 072°32'0 0.0
2012-Sep-05 18:33N 46°20' W 072°32'0 0.0
2012-Sep-05 17:33N 46°20' W 072°32'0 0.0
2012-Sep-05 16:33N 46°20' W 072°32'0 0.0
2012-Sep-05 15:33N 46°20' W 072°32'1 1.5
2012-Sep-05 14:33N 46°21' W 072°30'8 8.0
2012-Sep-05 13:33N 46°26' W 072°21'7 6.9
2012-Sep-05 12:33N 46°30' W 072°13'7 6.5
2012-Sep-05 11:33N 46°34' W 072°05'7 6.6
2012-Sep-05 10:31N 46°37' W 071°57'6 5.4
2012-Sep-05 09:30N 46°41' W 071°50'  

Dump ship's entire track history

sailing weather and tide predictions

Jacques Cartier — VC3920 — position and weather